Time;durP1;ratioP1;P1;durP2;ratioP2;P2;SDS_P1;SDS_P2;PMS_P1;PMS_P2;Temp;Humidity;BMP_temperature;BMP_pressure;BME280_temperature;BME280_humidity;BME280_pressure;Samples;Min_cycle;Max_cycle;Signal;HPM_P1;HPM_P2
2021/07/16 00:01:43;;;;;;;11.87;10.70;;;21.60;99.90;;;;;;5053356;28;20529;-55
2021/07/16 00:04:10;;;;;;;10.93;10.03;;;21.60;99.90;;;;;;5052860;28;20430;-56
2021/07/16 00:06:57;;;;;;;11.90;10.90;;;21.60;99.90;;;;;;5052788;28;20844;-56
2021/07/16 00:09:23;;;;;;;11.83;10.73;;;21.60;99.90;;;;;;5052097;28;20469;-55
2021/07/16 00:11:50;;;;;;;11.63;10.50;;;21.30;99.90;;;;;;5052565;28;20485;-55
2021/07/16 00:14:16;;;;;;;11.77;10.70;;;21.50;99.90;;;;;;5052618;28;20438;-56
2021/07/16 00:16:43;;;;;;;12.03;10.87;;;21.60;99.90;;;;;;5052585;28;20900;-56
2021/07/16 00:19:10;;;;;;;10.50;9.60;;;21.50;99.90;;;;;;5052190;28;20451;-55
2021/07/16 00:21:36;;;;;;;11.80;10.70;;;21.50;99.90;;;;;;5034534;28;20453;-55
2021/07/16 00:24:05;;;;;;;13.40;12.00;;;21.50;99.90;;;;;;5052436;28;20434;-56
2021/07/16 00:26:31;;;;;;;12.07;10.80;;;21.50;99.90;;;;;;5052453;28;20435;-56
2021/07/16 00:28:58;;;;;;;11.73;10.53;;;21.50;99.90;;;;;;5051757;28;20871;-54
2021/07/16 00:31:25;;;;;;;11.70;10.60;;;21.50;99.90;;;;;;5052538;28;20958;-55
2021/07/16 00:33:51;;;;;;;15.00;10.53;;;21.70;99.90;;;;;;5052171;28;20482;-56
2021/07/16 00:36:18;;;;;;;11.93;10.93;;;21.50;99.90;;;;;;5052197;28;20828;-55
2021/07/16 00:38:45;;;;;;;11.83;10.73;;;21.50;99.90;;;;;;5051751;28;20458;-55
2021/07/16 00:41:13;;;;;;;11.73;10.70;;;21.50;99.90;;;;;;5052223;28;20435;-56
2021/07/16 00:43:39;;;;;;;12.33;10.80;;;21.50;99.90;;;;;;5052057;28;20436;-56
2021/07/16 00:46:06;;;;;;;10.97;9.97;;;21.50;99.90;;;;;;5052000;28;20430;-56
2021/07/16 00:48:32;;;;;;;11.37;10.27;;;21.50;99.90;;;;;;5051710;28;20462;-55
2021/07/16 00:50:59;;;;;;;10.70;9.70;;;21.40;99.90;;;;;;5051950;28;20973;-56
2021/07/16 00:53:26;;;;;;;11.67;10.37;;;21.40;99.90;;;;;;5051929;28;20478;-56
2021/07/16 00:55:53;;;;;;;12.63;11.43;;;21.40;99.90;;;;;;5052001;28;20429;-56
2021/07/16 00:58:21;;;;;;;10.40;9.50;;;21.40;99.90;;;;;;5051328;28;20471;-56
2021/07/16 01:00:48;;;;;;;11.20;10.20;;;21.50;99.90;;;;;;5051516;28;20429;-56
2021/07/16 01:03:16;;;;;;;11.80;10.60;;;21.30;99.90;;;;;;5051759;28;20433;-55
2021/07/16 01:05:43;;;;;;;11.30;10.20;;;21.30;99.90;;;;;;5051643;28;20445;-55
2021/07/16 01:08:10;;;;;;;10.80;9.70;;;21.30;99.90;;;;;;5051199;28;20703;-55
2021/07/16 01:10:38;;;;;;;11.03;9.97;;;21.30;99.90;;;;;;5051658;28;20432;-55
2021/07/16 01:13:07;;;;;;;11.83;10.63;;;21.20;99.90;;;;;;5033543;28;20474;-55
2021/07/16 01:15:35;;;;;;;11.90;10.80;;;21.30;99.90;;;;;;5051612;28;21003;-55
2021/07/16 01:18:02;;;;;;;12.63;11.47;;;21.20;99.90;;;;;;5051145;28;20453;-56
2021/07/16 01:20:31;;;;;;;11.63;10.60;;;21.20;99.90;;;;;;5051525;28;20881;-56
2021/07/16 01:23:00;;;;;;;12.13;11.07;;;21.20;99.90;;;;;;5033444;28;20490;-55
2021/07/16 01:25:30;;;;;;;11.60;10.40;;;21.20;99.90;;;;;;5051341;28;20438;-55
2021/07/16 01:27:58;;;;;;;12.70;11.10;;;21.10;99.90;;;;;;5051210;28;20970;-56
2021/07/16 01:30:27;;;;;;;11.37;10.23;;;21.10;99.90;;;;;;5033148;28;20438;-55
2021/07/16 01:32:54;;;;;;;11.73;10.70;;;21.10;99.90;;;;;;5051194;28;20551;-54
2021/07/16 01:35:24;;;;;;;12.90;11.60;;;21.10;99.90;;;;;;5051330;28;20476;-55
2021/07/16 01:37:51;;;;;;;11.87;10.77;;;21.10;99.90;;;;;;5051315;28;20462;-55
2021/07/16 01:40:20;;;;;;;11.60;10.40;;;21.10;99.90;;;;;;5050789;28;20434;-55
2021/07/16 01:42:50;;;;;;;12.70;10.63;;;21.10;99.90;;;;;;5051152;28;20440;-56
2021/07/16 01:45:19;;;;;;;11.33;10.33;;;21.10;99.90;;;;;;5051169;28;20429;-56
2021/07/16 01:47:48;;;;;;;12.03;10.87;;;21.10;99.90;;;;;;5050829;28;20906;-55
2021/07/16 01:50:15;;;;;;;12.63;11.37;;;21.10;99.90;;;;;;5050592;28;20938;-56
2021/07/16 01:52:43;;;;;;;11.97;10.90;;;21.10;99.90;;;;;;5050995;28;20485;-55
2021/07/16 01:55:11;;;;;;;11.10;10.20;;;21.10;99.90;;;;;;5051509;28;20964;-55
2021/07/16 01:57:38;;;;;;;14.10;11.87;;;21.00;99.90;;;;;;5057320;28;20445;-55
2021/07/16 02:00:11;;;;;;;13.50;11.33;;;21.20;99.90;;;;;;5057383;28;20775;-54
2021/07/16 02:02:46;;;;;;;12.30;11.10;;;21.00;99.90;;;;;;5057618;28;20422;-54
2021/07/16 02:05:13;;;;;;;11.67;10.40;;;21.00;99.90;;;;;;5057315;28;20497;-55
2021/07/16 02:07:40;;;;;;;10.87;9.77;;;21.00;99.90;;;;;;5056420;28;20445;-57
2021/07/16 02:10:07;;;;;;;11.33;10.33;;;21.10;99.90;;;;;;5056739;28;20445;-56
2021/07/16 02:12:34;;;;;;;11.50;10.50;;;21.00;99.90;;;;;;5057450;28;20438;-55
2021/07/16 02:15:00;;;;;;;12.20;11.10;;;21.00;99.90;;;;;;5057480;28;20438;-56
2021/07/16 02:17:28;;;;;;;12.30;11.20;;;21.00;99.90;;;;;;5057519;28;20441;-56
2021/07/16 02:19:55;;;;;;;12.10;11.00;;;21.00;99.90;;;;;;5038881;28;20441;-55
2021/07/16 02:22:21;;;;;;;12.37;11.27;;;21.00;99.90;;;;;;5057543;28;20812;-56
2021/07/16 02:24:48;;;;;;;11.47;10.47;;;20.90;99.90;;;;;;5057507;28;20426;-55
2021/07/16 02:27:14;;;;;;;12.23;11.23;;;20.90;99.90;;;;;;5057669;28;20887;-55
2021/07/16 02:29:41;;;;;;;13.20;11.47;;;20.90;99.90;;;;;;5057200;28;20448;-55
2021/07/16 02:32:08;;;;;;;11.90;10.77;;;20.90;99.90;;;;;;5057516;28;20451;-55
2021/07/16 02:34:36;;;;;;;11.73;10.77;;;20.90;99.90;;;;;;5057250;28;20480;-54
2021/07/16 02:37:02;;;;;;;12.30;11.27;;;20.90;99.90;;;;;;5057535;28;20449;-55
2021/07/16 02:39:29;;;;;;;12.07;11.07;;;20.80;99.90;;;;;;5057055;28;20461;-55
2021/07/16 02:41:55;;;;;;;11.33;10.43;;;20.80;99.90;;;;;;5057319;28;20767;-54
2021/07/16 02:44:22;;;;;;;12.77;11.10;;;20.90;99.90;;;;;;5039294;28;20895;-55
2021/07/16 02:46:48;;;;;;;11.97;10.93;;;20.80;99.90;;;;;;5057086;28;20435;-56
2021/07/16 02:49:15;;;;;;;14.80;12.97;;;20.70;99.90;;;;;;5056890;28;20919;-55
2021/07/16 02:51:43;;;;;;;11.87;10.77;;;20.70;99.90;;;;;;5057156;28;20433;-55
2021/07/16 02:54:09;;;;;;;14.13;10.67;;;20.70;99.90;;;;;;5057271;28;20478;-55
2021/07/16 02:56:36;;;;;;;12.77;11.70;;;20.80;99.90;;;;;;5057229;28;20941;-55
2021/07/16 02:59:03;;;;;;;19.93;11.80;;;20.90;99.90;;;;;;5056787;28;20477;-55
2021/07/16 03:01:29;;;;;;;13.70;12.40;;;20.70;99.90;;;;;;5056861;28;20959;-55
2021/07/16 03:03:56;;;;;;;12.63;11.27;;;20.70;99.90;;;;;;5057370;28;20437;-56
2021/07/16 03:06:22;;;;;;;13.87;11.87;;;20.70;99.90;;;;;;5057856;28;20544;-57
2021/07/16 03:08:50;;;;;;;14.63;12.37;;;20.70;99.90;;;;;;5052747;28;20460;-55
2021/07/16 03:11:17;;;;;;;12.87;11.77;;;20.60;99.90;;;;;;5053860;28;20431;-56
2021/07/16 03:13:43;;;;;;;11.97;10.87;;;20.70;99.90;;;;;;5053689;28;20468;-55
2021/07/16 03:16:10;;;;;;;13.10;11.90;;;20.70;99.90;;;;;;5053525;28;20445;-55
2021/07/16 03:18:37;;;;;;;12.17;10.50;;;20.70;99.90;;;;;;5053236;28;20459;-55
2021/07/16 03:21:03;;;;;;;13.50;12.20;;;20.70;99.90;;;;;;5053622;28;20440;-55
2021/07/16 03:23:30;;;;;;;11.70;10.70;;;20.70;99.90;;;;;;5053734;28;20471;-55
2021/07/16 03:25:58;;;;;;;12.30;11.10;;;20.60;99.90;;;;;;5053603;28;20430;-55
2021/07/16 03:28:24;;;;;;;11.67;10.67;;;20.70;99.90;;;;;;5052937;28;20877;-55
2021/07/16 03:30:51;;;;;;;13.73;12.63;;;20.60;99.90;;;;;;5053498;28;20451;-55
2021/07/16 03:33:17;;;;;;;13.17;11.97;;;20.60;99.90;;;;;;5053421;28;20980;-56
2021/07/16 03:35:44;;;;;;;12.43;11.27;;;20.80;99.90;;;;;;5053505;28;20924;-56
2021/07/16 03:38:11;;;;;;;13.50;12.23;;;20.70;99.90;;;;;;5053075;28;20456;-55
2021/07/16 03:40:37;;;;;;;13.73;12.33;;;20.70;99.90;;;;;;5053280;28;20435;-55
2021/07/16 03:43:05;;;;;;;13.47;12.10;;;20.70;99.90;;;;;;5035238;28;20460;-56
2021/07/16 03:45:32;;;;;;;16.40;13.10;;;20.70;99.90;;;;;;5053513;28;20440;-56
2021/07/16 03:47:58;;;;;;;15.83;14.07;;;20.70;99.90;;;;;;5053036;28;20462;-54
2021/07/16 03:50:25;;;;;;;13.20;11.87;;;20.70;99.90;;;;;;5052932;28;20439;-56
2021/07/16 03:52:53;;;;;;;13.57;12.43;;;20.70;99.90;;;;;;5052923;28;20448;-57
2021/07/16 03:55:20;;;;;;;12.17;11.17;;;20.70;99.90;;;;;;5052894;28;20486;-55
2021/07/16 03:57:48;;;;;;;12.40;11.20;;;20.70;99.90;;;;;;5034693;28;20455;-57
2021/07/16 04:00:18;;;;;;;13.77;12.10;;;20.70;99.90;;;;;;5052737;28;20822;-57
2021/07/16 04:02:45;;;;;;;14.50;12.60;;;20.70;99.90;;;;;;5052821;28;20494;-57
2021/07/16 04:05:13;;;;;;;13.53;12.33;;;20.80;99.90;;;;;;5053148;28;20444;-55
2021/07/16 04:07:45;;;;;;;14.20;12.37;;;20.80;99.90;;;;;;5052724;28;20451;-57
2021/07/16 04:10:13;;;;;;;14.40;12.60;;;20.80;99.90;;;;;;5052106;28;20442;-56
2021/07/16 04:12:40;;;;;;;14.67;13.00;;;21.00;99.90;;;;;;5052526;28;20551;-56
2021/07/16 04:15:08;;;;;;;13.50;12.20;;;21.10;99.90;;;;;;5052333;28;20895;-56
2021/07/16 04:17:36;;;;;;;16.50;12.23;;;21.20;99.90;;;;;;5052299;28;20432;-56
2021/07/16 04:20:03;;;;;;;15.13;11.97;;;21.30;99.90;;;;;;5051876;28;20925;-53
2021/07/16 04:22:30;;;;;;;13.37;12.03;;;21.40;99.90;;;;;;5052229;28;20443;-53
2021/07/16 04:24:56;;;;;;;12.93;11.50;;;21.50;99.90;;;;;;5052134;28;20437;-54
2021/07/16 04:27:23;;;;;;;16.70;12.10;;;21.60;99.90;;;;;;5052240;28;20846;-52
2021/07/16 04:29:49;;;;;;;12.90;10.43;;;21.70;99.90;;;;;;5052183;28;20471;-52
2021/07/16 04:32:17;;;;;;;14.50;12.93;;;21.80;99.90;;;;;;5052133;28;20441;-52
2021/07/16 04:34:45;;;;;;;15.80;13.67;;;21.90;99.90;;;;;;5034136;28;20467;-52
2021/07/16 04:37:12;;;;;;;14.47;13.10;;;22.10;99.90;;;;;;5052256;28;20438;-53
2021/07/16 04:39:39;;;;;;;14.87;13.40;;;22.00;99.90;;;;;;5051465;28;20461;-55
2021/07/16 04:42:06;;;;;;;15.30;12.70;;;22.10;99.90;;;;;;5052113;28;20449;-52
2021/07/16 04:44:33;;;;;;;13.37;12.17;;;22.10;99.90;;;;;;5052203;28;20443;-52
2021/07/16 04:47:00;;;;;;;14.30;12.70;;;22.30;99.90;;;;;;5051921;28;20435;-52
2021/07/16 04:49:26;;;;;;;13.40;12.07;;;22.20;99.90;;;;;;5051272;28;20457;-56
2021/07/16 04:51:54;;;;;;;15.10;12.40;;;22.30;99.90;;;;;;5051794;28;20426;-53
2021/07/16 04:54:22;;;;;;;13.73;12.40;;;22.30;99.90;;;;;;5051726;28;20500;-53
2021/07/16 04:56:49;;;;;;;13.90;12.50;;;22.40;99.90;;;;;;5034002;28;20453;-62
2021/07/16 04:59:16;;;;;;;13.20;11.90;;;22.60;99.90;;;;;;5064818;22;20494;-53
2021/07/16 05:01:43;;;;;;;11.60;10.40;;;22.70;99.90;;;;;;5032285;28;20444;-53
2021/07/16 05:04:09;;;;;;;14.10;12.60;;;22.80;99.90;;;;;;5014456;28;20534;-50
2021/07/16 05:06:36;;;;;;;12.33;11.13;;;22.90;99.90;;;;;;5032283;28;20449;-50
2021/07/16 05:09:04;;;;;;;12.60;11.50;;;23.20;99.90;;;;;;5031763;28;20465;-52
2021/07/16 05:11:31;;;;;;;12.40;11.23;;;23.10;99.90;;;;;;5014150;28;20454;-53
2021/07/16 05:13:58;;;;;;;11.00;9.93;;;23.30;99.90;;;;;;5031991;28;20513;-51
2021/07/16 05:16:25;;;;;;;11.00;9.97;;;23.40;99.90;;;;;;5032016;28;20440;-51
2021/07/16 05:18:51;;;;;;;10.23;9.13;;;24.10;99.90;;;;;;5031063;28;20468;-51
2021/07/16 05:21:18;;;;;;;14.40;10.33;;;23.60;99.90;;;;;;5031793;28;20426;-51
2021/07/16 05:23:45;;;;;;;9.30;8.50;;;23.80;99.90;;;;;;5031731;28;20775;-52
2021/07/16 05:26:13;;;;;;;10.77;9.60;;;23.90;99.90;;;;;;5031492;28;20789;-52
2021/07/16 05:28:40;;;;;;;11.50;8.63;;;24.00;99.90;;;;;;5031187;28;21008;-53
2021/07/16 05:31:08;;;;;;;12.73;9.07;;;24.10;99.90;;;;;;5030828;28;20843;-52
2021/07/16 05:33:34;;;;;;;10.13;9.23;;;24.30;99.90;;;;;;5031450;28;20460;-52
2021/07/16 05:36:01;;;;;;;9.90;9.00;;;24.10;99.90;;;;;;5031548;28;20763;-52
2021/07/16 05:38:28;;;;;;;11.17;10.13;;;24.30;99.90;;;;;;5031170;28;20513;-52
2021/07/16 05:40:54;;;;;;;10.07;9.17;;;24.50;99.90;;;;;;5031936;28;20431;-52
2021/07/16 05:43:22;;;;;;;10.93;9.80;;;24.50;99.90;;;;;;5031639;28;20445;-52
2021/07/16 05:45:49;;;;;;;10.07;9.07;;;24.50;99.90;;;;;;5031487;28;20435;-52
2021/07/16 05:48:16;;;;;;;12.73;9.40;;;24.70;99.90;;;;;;5031289;28;20827;-52
2021/07/16 05:50:46;;;;;;;10.07;9.20;;;24.50;99.90;;;;;;5031427;28;20798;-52
2021/07/16 05:53:13;;;;;;;11.63;9.03;;;24.50;99.90;;;;;;5031396;28;20506;-52
2021/07/16 05:55:39;;;;;;;12.03;8.40;;;24.60;99.90;;;;;;5013563;28;20502;-52
2021/07/16 05:58:06;;;;;;;10.30;9.27;;;24.90;99.90;;;;;;5030760;28;20848;-52
2021/07/16 06:00:35;;;;;;;9.60;8.70;;;24.70;99.90;;;;;;5031425;28;20450;-52
2021/07/16 06:03:02;;;;;;;9.50;8.70;;;24.80;99.90;;;;;;5031258;28;20470;-52
2021/07/16 06:05:29;;;;;;;11.73;8.77;;;24.90;99.90;;;;;;5031414;28;20443;-52
2021/07/16 06:07:55;;;;;;;10.30;9.30;;;25.00;99.90;;;;;;5031181;28;20439;-52
2021/07/16 06:10:22;;;;;;;11.57;9.73;;;25.10;99.90;;;;;;5030763;28;20455;-52
2021/07/16 06:12:49;;;;;;;9.70;8.80;;;25.10;99.90;;;;;;5032747;28;20442;-52
2021/07/16 06:15:15;;;;;;;10.30;9.00;;;25.10;99.90;;;;;;5033609;28;20569;-52
2021/07/16 06:17:43;;;;;;;10.50;9.70;;;25.20;99.90;;;;;;5030891;28;20434;-52
2021/07/16 06:20:13;;;;;;;8.97;8.27;;;25.20;99.90;;;;;;5030566;28;20952;-52
2021/07/16 06:22:40;;;;;;;10.40;9.50;;;25.30;99.90;;;;;;5031054;28;20419;-52
2021/07/16 06:25:07;;;;;;;14.43;10.73;;;25.30;99.90;;;;;;5031144;28;20431;-52
2021/07/16 06:27:34;;;;;;;11.37;9.40;;;25.50;99.90;;;;;;5030422;28;20434;-52
2021/07/16 06:30:01;;;;;;;9.50;8.57;;;25.50;99.90;;;;;;5030595;28;20461;-52
2021/07/16 06:32:28;;;;;;;8.53;7.70;;;25.60;99.90;;;;;;5030628;28;20487;-52
2021/07/16 06:34:56;;;;;;;9.87;8.70;;;25.70;99.90;;;;;;5030804;28;20489;-52
2021/07/16 06:37:23;;;;;;;9.67;8.63;;;25.80;99.90;;;;;;5031120;28;20805;-52
2021/07/16 06:39:49;;;;;;;10.80;9.73;;;25.80;99.90;;;;;;5030435;28;20465;-52
2021/07/16 06:42:16;;;;;;;9.43;7.93;;;25.90;99.90;;;;;;5031991;28;20434;-52
2021/07/16 06:44:43;;;;;;;10.03;8.17;;;25.90;99.90;;;;;;5034662;28;20457;-52
2021/07/16 06:47:10;;;;;;;9.77;8.87;;;25.90;99.90;;;;;;5034427;28;20436;-52
2021/07/16 06:49:37;;;;;;;9.27;8.57;;;25.90;99.90;;;;;;5034260;28;20467;-52
2021/07/16 06:52:06;;;;;;;9.37;8.30;;;25.90;99.90;;;;;;5034588;28;20442;-52
2021/07/16 06:54:32;;;;;;;11.80;9.13;;;25.90;99.90;;;;;;5034505;28;20472;-52
2021/07/16 06:56:59;;;;;;;8.70;8.00;;;25.90;99.90;;;;;;5033902;28;20427;-52
2021/07/16 06:59:26;;;;;;;6.83;6.33;;;25.90;99.90;;;;;;5033790;28;20471;-52
2021/07/16 07:01:52;;;;;;;8.83;8.13;;;25.90;99.90;;;;;;5034202;28;20447;-52
2021/07/16 07:04:19;;;;;;;14.87;7.53;;;26.00;99.90;;;;;;5034163;28;20474;-52
2021/07/16 07:06:46;;;;;;;9.70;8.80;;;26.10;99.90;;;;;;5034110;28;20437;-52
2021/07/16 07:09:13;;;;;;;9.17;8.20;;;26.10;99.90;;;;;;5033524;28;20467;-53
2021/07/16 07:11:40;;;;;;;9.20;8.40;;;26.10;99.90;;;;;;5033975;28;20427;-52
2021/07/16 07:14:07;;;;;;;9.10;8.23;;;26.10;99.90;;;;;;5033867;28;20435;-52
2021/07/16 07:16:34;;;;;;;9.90;8.90;;;26.10;99.90;;;;;;5034409;28;20450;-51
2021/07/16 07:19:00;;;;;;;9.23;8.43;;;26.10;99.90;;;;;;5016325;28;20468;-52
2021/07/16 07:21:27;;;;;;;11.13;7.97;;;26.10;99.90;;;;;;5034121;28;20466;-52
2021/07/16 07:23:54;;;;;;;9.77;8.97;;;26.10;99.90;;;;;;5033905;28;20447;-52
2021/07/16 07:26:22;;;;;;;10.17;9.10;;;26.20;99.90;;;;;;5034002;28;20499;-52
2021/07/16 07:28:49;;;;;;;10.00;9.03;;;26.20;99.90;;;;;;5033633;28;20463;-52
2021/07/16 07:31:16;;;;;;;9.70;8.90;;;26.20;99.90;;;;;;5034143;28;20447;-51
2021/07/16 07:33:43;;;;;;;9.47;8.60;;;26.30;99.90;;;;;;5033863;28;20442;-52
2021/07/16 07:36:09;;;;;;;9.60;8.70;;;26.20;99.90;;;;;;5033422;28;20996;-52
2021/07/16 07:38:36;;;;;;;9.50;8.67;;;26.30;99.90;;;;;;5033283;28;20470;-52
2021/07/16 07:41:04;;;;;;;8.73;8.03;;;26.30;99.90;;;;;;5033955;28;20827;-52
2021/07/16 07:43:32;;;;;;;9.37;8.43;;;26.40;99.90;;;;;;5033322;28;20489;-52
2021/07/16 07:45:58;;;;;;;9.13;8.20;;;26.40;99.90;;;;;;5033506;28;20446;-52
2021/07/16 07:48:25;;;;;;;9.10;8.40;;;26.40;99.90;;;;;;5033030;28;20455;-52
2021/07/16 07:50:52;;;;;;;10.10;9.10;;;26.40;99.90;;;;;;5015373;28;20467;-52
2021/07/16 07:53:19;;;;;;;9.20;8.40;;;26.40;99.90;;;;;;5032267;28;20435;-52
2021/07/16 07:55:46;;;;;;;12.17;8.50;;;26.40;99.90;;;;;;5033138;28;20482;-52
2021/07/16 07:58:12;;;;;;;10.03;8.03;;;26.50;99.90;;;;;;5032415;28;20450;-52
2021/07/16 08:00:40;;;;;;;10.73;9.70;;;26.50;99.90;;;;;;5033154;28;20442;-52
2021/07/16 08:03:07;;;;;;;9.03;8.23;;;26.50;99.90;;;;;;5033100;28;20445;-52
2021/07/16 08:05:34;;;;;;;11.07;8.87;;;27.00;99.90;;;;;;5033125;28;20446;-52
2021/07/16 08:08:00;;;;;;;11.40;8.00;;;26.50;99.90;;;;;;5032896;28;20438;-52
2021/07/16 08:10:27;;;;;;;11.70;7.60;;;26.50;99.90;;;;;;5033381;28;20431;-52
2021/07/16 08:12:55;;;;;;;9.00;7.93;;;26.90;99.90;;;;;;5033237;28;20432;-52
2021/07/16 08:15:22;;;;;;;12.03;8.17;;;26.60;99.90;;;;;;5032999;28;20564;-52
2021/07/16 08:17:50;;;;;;;9.13;8.13;;;26.60;99.90;;;;;;5033082;28;20427;-52
2021/07/16 08:20:17;;;;;;;11.07;8.53;;;26.70;99.90;;;;;;5032189;28;20438;-52
2021/07/16 08:22:44;;;;;;;10.47;9.03;;;26.70;99.90;;;;;;5033080;28;20514;-52
2021/07/16 08:25:12;;;;;;;9.93;9.03;;;26.80;99.90;;;;;;5032912;28;20527;-53
2021/07/16 08:27:39;;;;;;;9.80;8.90;;;26.80;99.90;;;;;;5032846;28;20435;-52
2021/07/16 08:30:07;;;;;;;10.27;9.37;;;26.80;99.90;;;;;;5032567;28;20455;-52
2021/07/16 08:32:34;;;;;;;9.83;8.93;;;26.90;99.90;;;;;;5032393;28;20435;-52
2021/07/16 08:35:03;;;;;;;9.20;8.40;;;26.90;99.90;;;;;;5032640;28;20485;-52
2021/07/16 08:37:29;;;;;;;13.77;9.50;;;26.80;99.90;;;;;;5032245;28;20436;-52
2021/07/16 08:39:57;;;;;;;10.40;9.10;;;27.00;99.90;;;;;;5031948;28;20464;-52
2021/07/16 08:42:25;;;;;;;10.03;8.40;;;27.10;99.90;;;;;;5032819;28;20458;-52
2021/07/16 08:44:52;;;;;;;9.57;8.60;;;27.20;99.90;;;;;;5032339;28;20428;-52
2021/07/16 08:47:20;;;;;;;9.70;8.57;;;27.40;99.90;;;;;;5032520;28;20843;-52
2021/07/16 08:49:47;;;;;;;11.20;9.30;;;27.50;99.90;;;;;;5031985;28;20493;-52
2021/07/16 08:52:16;;;;;;;10.90;9.87;;;27.40;99.90;;;;;;5032172;28;20430;-52
2021/07/16 08:54:47;;;;;;;12.47;10.17;;;27.50;99.90;;;;;;5014233;28;20463;-52
2021/07/16 08:57:15;;;;;;;11.27;10.17;;;27.50;99.90;;;;;;5032088;28;20460;-52
2021/07/16 08:59:42;;;;;;;11.00;9.87;;;27.50;99.90;;;;;;5031526;28;20527;-52
2021/07/16 09:02:10;;;;;;;11.20;9.87;;;27.60;99.90;;;;;;5032387;28;20923;-52
2021/07/16 09:04:39;;;;;;;10.47;9.47;;;27.60;99.90;;;;;;5032037;28;20490;-52
2021/07/16 09:07:05;;;;;;;11.60;10.40;;;27.50;99.90;;;;;;5031397;28;20928;-52
2021/07/16 09:09:37;;;;;;;11.20;10.20;;;27.40;99.90;;;;;;5013827;28;21007;-52
2021/07/16 09:12:07;;;;;;;13.33;9.83;;;27.40;99.90;;;;;;5032066;28;20489;-52
2021/07/16 09:14:34;;;;;;;11.10;10.00;;;27.40;99.90;;;;;;5031625;28;20444;-52
2021/07/16 09:17:02;;;;;;;11.10;10.20;;;27.40;99.90;;;;;;5032055;28;20479;-53
2021/07/16 09:19:31;;;;;;;10.90;9.80;;;27.50;99.90;;;;;;5031559;28;20483;-52
2021/07/16 09:22:03;;;;;;;11.37;10.30;;;27.60;99.90;;;;;;5031556;28;20851;-52
2021/07/16 09:24:29;;;;;;;11.30;10.20;;;27.60;99.90;;;;;;5031260;28;20446;-52
2021/07/16 09:26:58;;;;;;;10.20;9.30;;;27.60;99.90;;;;;;5031261;28;20437;-52
2021/07/16 09:29:28;;;;;;;10.40;9.17;;;27.70;99.90;;;;;;5031368;28;20452;-52
2021/07/16 09:32:03;;;;;;;10.57;9.57;;;27.30;99.90;;;;;;5031659;28;20530;-52
2021/07/16 09:34:30;;;;;;;11.57;10.37;;;27.90;99.90;;;;;;5031405;28;20431;-52
2021/07/16 09:36:57;;;;;;;11.40;9.90;;;27.90;99.90;;;;;;5013462;28;20487;-52
2021/07/16 09:39:25;;;;;;;11.40;10.17;;;28.00;99.90;;;;;;5031008;28;20455;-52
2021/07/16 09:41:54;;;;;;;10.53;9.50;;;28.10;99.90;;;;;;5031454;28;20438;-52
2021/07/16 09:44:30;;;;;;;14.03;10.30;;;28.10;99.90;;;;;;5031497;28;20907;-53
2021/07/16 09:47:11;;;;;;;13.00;9.50;;;28.20;99.60;;;;;;5013331;28;20974;-52
2021/07/16 09:49:38;;;;;;;10.27;9.27;;;28.20;99.30;;;;;;5030751;28;20520;-52
2021/07/16 09:52:10;;;;;;;10.47;9.37;;;28.20;99.30;;;;;;5030773;28;20470;-52
2021/07/16 09:54:37;;;;;;;9.20;8.30;;;28.30;98.90;;;;;;5030906;28;20459;-52
2021/07/16 09:57:05;;;;;;;11.20;9.97;;;28.40;98.90;;;;;;5030737;28;20479;-52
2021/07/16 09:59:33;;;;;;;10.00;8.97;;;28.50;98.80;;;;;;5030475;28;20554;-52
2021/07/16 10:02:01;;;;;;;14.30;9.50;;;28.80;98.70;;;;;;5031110;28;20451;-52
2021/07/16 10:04:32;;;;;;;9.87;8.87;;;28.60;98.60;;;;;;5030796;28;20443;-52
2021/07/16 10:07:00;;;;;;;9.30;8.23;;;28.70;98.60;;;;;;5031014;28;20826;-52
2021/07/16 10:09:27;;;;;;;12.10;8.20;;;28.70;98.40;;;;;;5030494;28;20475;-52
2021/07/16 10:11:55;;;;;;;9.80;8.60;;;28.70;98.00;;;;;;5031450;28;20431;-52
2021/07/16 10:14:22;;;;;;;9.73;7.83;;;28.60;97.30;;;;;;5012987;28;20768;-52
2021/07/16 10:16:52;;;;;;;10.00;8.60;;;28.70;97.40;;;;;;5031807;28;20529;-52
2021/07/16 10:19:20;;;;;;;8.63;7.77;;;28.70;97.70;;;;;;5034482;28;20541;-52
2021/07/16 10:21:48;;;;;;;11.97;9.10;;;28.90;97.20;;;;;;5034989;28;20619;-53
2021/07/16 10:24:20;;;;;;;9.00;8.00;;;29.00;96.80;;;;;;5017102;28;20449;-53
2021/07/16 10:26:50;;;;;;;9.10;8.20;;;29.00;96.30;;;;;;5035273;28;20431;-53
2021/07/16 10:29:38;;;;;;;8.90;8.10;;;29.10;96.20;;;;;;5034409;28;20459;-53
2021/07/16 10:32:07;;;;;;;12.87;7.80;;;29.20;95.60;;;;;;5034732;28;20442;-53
2021/07/16 10:34:35;;;;;;;8.37;7.60;;;29.20;95.40;;;;;;5034572;28;20500;-53
2021/07/16 10:37:05;;;;;;;11.77;8.50;;;29.30;95.40;;;;;;5034603;28;20558;-53
2021/07/16 10:39:43;;;;;;;9.70;8.70;;;29.40;95.30;;;;;;5033867;28;20481;-52
2021/07/16 10:42:46;;;;;;;15.30;8.07;;;29.50;94.90;;;;;;5033696;28;20924;-53
2021/07/16 10:45:14;;;;;;;8.60;7.70;;;29.50;94.60;;;;;;5018271;28;20458;-53
2021/07/16 10:47:45;;;;;;;11.27;8.30;;;29.40;94.90;;;;;;5016513;28;20458;-53
2021/07/16 10:50:13;;;;;;;10.23;8.60;;;29.50;94.90;;;;;;5034013;28;20459;-53
2021/07/16 10:52:48;;;;;;;11.20;8.90;;;29.60;94.70;;;;;;5034306;28;20427;-52
2021/07/16 10:55:17;;;;;;;8.90;8.00;;;29.70;94.40;;;;;;5034302;28;20441;-53
2021/07/16 10:57:45;;;;;;;11.40;10.20;;;29.70;94.60;;;;;;5034121;28;20948;-53
2021/07/16 11:00:33;;;;;;;9.17;8.27;;;29.70;94.60;;;;;;5063957;22;20812;-53
2021/07/16 11:03:08;;;;;;;10.30;9.27;;;29.60;94.40;;;;;;5053234;28;20431;-53
2021/07/16 11:05:52;;;;;;;9.30;8.40;;;29.70;94.10;;;;;;5052856;28;20444;-53
2021/07/16 11:08:44;;;;;;;8.90;8.07;;;29.70;93.70;;;;;;5052504;28;20426;-54
2021/07/16 11:11:12;;;;;;;10.17;8.77;;;29.40;93.80;;;;;;5042522;28;20481;-53
2021/07/16 11:13:43;;;;;;;10.40;8.70;;;30.00;93.80;;;;;;5052365;28;20512;-53
2021/07/16 11:16:43;;;;;;;9.00;8.20;;;30.10;93.10;;;;;;5052367;28;20835;-53
2021/07/16 11:19:26;;;;;;;8.77;7.83;;;30.20;92.20;;;;;;5052530;28;20946;-53
2021/07/16 11:22:00;;;;;;;9.83;7.77;;;30.20;92.10;;;;;;5052234;28;20923;-54
2021/07/16 11:24:31;;;;;;;14.47;7.80;;;30.20;92.00;;;;;;5052114;28;20432;-54
2021/07/16 11:27:01;;;;;;;10.00;8.00;;;30.30;91.60;;;;;;5052422;28;20434;-53
2021/07/16 11:29:29;;;;;;;9.00;8.10;;;30.30;91.30;;;;;;5050642;28;21035;-54
2021/07/16 11:32:05;;;;;;;8.40;7.53;;;30.30;91.30;;;;;;5034503;28;20450;-54
2021/07/16 11:34:34;;;;;;;7.73;7.03;;;30.40;91.00;;;;;;5052527;28;20949;-54
2021/07/16 11:37:00;;;;;;;12.80;7.00;;;30.40;90.60;;;;;;5052098;28;20482;-54
2021/07/16 11:39:28;;;;;;;8.20;7.13;;;30.50;90.60;;;;;;5052043;28;20443;-54
2021/07/16 11:41:55;;;;;;;9.20;7.97;;;30.40;90.40;;;;;;5052525;28;20435;-54
2021/07/16 11:44:33;;;;;;;7.77;7.07;;;30.40;90.40;;;;;;5052235;28;20569;-54
2021/07/16 11:47:13;;;;;;;9.67;7.93;;;30.50;90.40;;;;;;5052235;28;20804;-54
2021/07/16 11:49:43;;;;;;;7.50;6.73;;;30.60;90.40;;;;;;5052002;28;20540;-53
2021/07/16 11:52:10;;;;;;;8.10;7.30;;;30.60;88.90;;;;;;5052152;28;20931;-53
2021/07/16 11:54:37;;;;;;;10.43;7.67;;;30.60;89.70;;;;;;5052334;28;20423;-53
2021/07/16 11:57:04;;;;;;;8.07;7.30;;;30.60;89.70;;;;;;5051936;28;20488;-53
2021/07/16 11:59:31;;;;;;;9.53;7.27;;;30.60;88.70;;;;;;5051982;28;20462;-54
2021/07/16 12:02:09;;;;;;;7.07;6.37;;;30.60;87.70;;;;;;5052669;28;20446;-54
2021/07/16 12:04:37;;;;;;;10.83;6.10;;;30.70;86.60;;;;;;5052327;28;20430;-54
2021/07/16 12:07:05;;;;;;;7.57;6.53;;;30.70;85.80;;;;;;5051985;28;20497;-54
2021/07/16 12:09:33;;;;;;;6.50;5.87;;;30.90;84.80;;;;;;5051461;28;20512;-54
2021/07/16 12:12:02;;;;;;;10.33;6.57;;;30.80;85.50;;;;;;5051472;28;20450;-54
2021/07/16 12:14:28;;;;;;;7.80;7.00;;;30.80;85.80;;;;;;5051591;28;20923;-54
2021/07/16 12:16:56;;;;;;;7.80;6.50;;;30.90;86.00;;;;;;5051182;28;20478;-53
2021/07/16 12:19:22;;;;;;;6.60;6.00;;;31.00;85.80;;;;;;5051096;28;20450;-54
2021/07/16 12:21:49;;;;;;;7.30;6.30;;;31.00;83.70;;;;;;5051560;28;20498;-53
2021/07/16 12:24:18;;;;;;;7.57;6.50;;;31.10;82.30;;;;;;5051305;28;20942;-54
2021/07/16 12:26:45;;;;;;;9.50;6.00;;;31.20;82.70;;;;;;5051606;28;20431;-54
2021/07/16 12:29:12;;;;;;;8.03;6.27;;;31.20;81.00;;;;;;5051478;28;20442;-53
2021/07/16 12:31:38;;;;;;;6.37;5.87;;;31.10;80.40;;;;;;5051525;28;20430;-54
2021/07/16 12:34:21;;;;;;;6.93;6.20;;;31.10;80.90;;;;;;5051266;28;20431;-54
2021/07/16 12:36:50;;;;;;;6.40;5.80;;;31.20;81.10;;;;;;5050952;28;20573;-54
2021/07/16 12:39:21;;;;;;;9.20;5.97;;;31.10;81.30;;;;;;5050591;28;20447;-55
2021/07/16 12:41:48;;;;;;;9.10;6.10;;;31.20;80.20;;;;;;5051434;28;20453;-54